Flight Information

DEPARTURE
SANTA BARBARA, CA
Elevation:
13
Runways:
7/25 - 6052x150 - ASPH-G
15R/33L - 4184x100 - ASPH-G
15L/33R - 4180x75 - ASPH-G
ATIS:
132.65
Clearance Delivery:
132.9
Ground:
121.7
Tower:
119.7
DESTINATION
,
Elevation:
TPA:
1000 (est.)


6853.7 NM72° True-14° Var58° HDG

Flight Plan:
(click to file on line)

1. Type
2. Aircraft Identification
3. Aircraft Type / Special Equipment
4. True Airspeed
kts
5. Departure Airport
(ICAO code)
6. Arriving Airport
(ICAO code)
7. Cruising Altitude
ft
8. Alternate Airport
(ICAO code)
9. Route of Flight
10. Remarks


00:00:00 Departure ATIS: Destination ATIS:

Clearance Limit:
Route:
Altitude: Expect in minutes
Frequency:
Transponder: (7500 Hijack / 7600 Lost Comms / 7700 Emergency)


KSBA 251953Z 28012G18KT 10SM SCT022 BKN049 BKN120 12/01 A2980 RMK AO2 SLP092 T01220011
Time: 2021-01-25T19:53:00Z
1611605018
Winds: 280 @ 12 kts
Gusting:18 kts
Visibility: 10.0 sm
Clouds (AGL): SCT 2200
BKN 4900
BKN 12000
Temperature: 12.2 C
Dew Point: 1.1 C
Pressure: 29.799213 in Hgbr


Notes:

Data extracted from FAA Digital Chart Supplement. Effective: 0901Z Thursday, Dec 31, 2020 to 0901Z Thursday, Jan 28, 2021
Current ATIS data is provided courtisy of PilotEdge.